Pueblo Of Acoma, NM (87034)

8:26 AM MDT on July 12, 2014 (GMT -0600)
RAWS LAGUNA NM US (MTS341) Elev 5805 ft | 35.05 °N, 107.42 °W | Change Station

Current weather conditions updated 53 minutes ago

Mostly Cloudy
Mostly Cloudy
65 °F
Feels Like 65 °F
N
0
Wind Variable Wind from North
Gusts 3.0 mph

Today is forecast to be Cooler than yesterday.

Today
High -- | Low -- °F
--% Chance of Precip.
Yesterday
High -- | Low -- °F
Precip. -- in
6:05 AM 8:26 PM
Full, 100% visible
Pressure 30.35 in
Visibility 10.0 miles
Clouds Mostly Cloudy 10000 ft
Dew Point 60 °F
Humidity 83%
Rainfall 0.33 in
Snow Depth Not available.
UV 1 out of 12
Pollen 2.50 out of 12
Air Quality Not available.
Flu Activity Sporadic
METAR KGNT 121415Z AUTO 00000KT 10SM BKN100 18/12 A3035 RMK AO2 T01840121

More Conditions Fewer Conditions

Pressure 30.35 in
Visibility 10.0 miles
Clouds Mostly Cloudy 10000 ft
Dew Point 60 °F
Humidity 83%
Rainfall 0.33 in
Snow Depth Not available.
UV 1 out of 12
Pollen 2.50 out of 12
Air Quality Not available.
Flu Activity Sporadic
METAR KGNT 121415Z AUTO 00000KT 10SM BKN100 18/12 A3035 RMK AO2 T01840121

More Conditions Fewer Conditions

10-Day Weather Forecast

Almanac

Astronomy

Jul. 12, 2014 Rise Set
Actual Time 6:05 AM MDT 8:26 PM MDT
Civil Twilight 5:36 AM MDT 8:55 PM MDT
Nautical Twilight 5:00 AM MDT 9:31 PM MDT
Astronomical Twilight 4:21 AM MDT 10:10 PM MDT
Moon 8:35 PM MDT 6:25 AM MDT
Length of Visible Light 15h 18m
Length of Day
14h 20m
Tomorrow will be 1m 0s shorter.
Full, 100% of the Moon is Illuminated
Today
Full
Jul 18
Last Quarter
Jul 26
New
Aug 3
First Quarter
Aug 10
Full

Today's Extremes

State Highs State Lows

Community

WunderPhotos

Upload Photos

1,732,842 photos uploaded!

WunderBlogs® & News

Nearby

Snow Depth

Station Depth Elevation
Rice Park 0 in 8460 ft
Santa Fe 0 in 11445 ft
Frisco Divide 0 in 8000 ft
Bateman 0 in 9300 ft
Wesner Springs 0 in 11120 ft

Earthquake Activity

City Distance Mag. Time & Date
No recent earthquake activity has been reported nearby.
Minimum magnitude displayed is 2.5.

Coastal Water Temperatures

Place Temperature
No Stations Reporting

Nearby Weather Stations

Station Location Temp. Dew Point Humidity Wind Precip. Elev Updated Type
RAWS LAGUNA NM, Laguna, NM 65 °F 60 °F 83% North  at  0 mph 0.00 in / hr 5805 ft 7:33 AM MDT MADIS
Old Laguna Sub, New Mexico, NM 66.7 °F 55 °F 67% SW  at  9.3 mph 0.00 in / hr 5820 ft 8:23 AM MDT Normal
RAWS GRANTS NM, Grants, NM 50 °F 45 °F 82% ENE  at  1 mph 0.00 in / hr 8620 ft 7:16 AM MDT MADIS

Show More Stations Show Fewer Stations